sensor_id;sensor_type;location;lat;lon;timestamp;P1;durP1;ratioP1;P2;durP2;ratioP2
2698;SDS011;1359;51.798;12.174;2023-03-19T00:01:43;25.20;;;19.83;;
2698;SDS011;1359;51.798;12.174;2023-03-19T00:04:09;22.37;;;17.63;;
2698;SDS011;1359;51.798;12.174;2023-03-19T00:06:35;23.47;;;17.20;;
2698;SDS011;1359;51.798;12.174;2023-03-19T00:09:00;29.53;;;18.93;;
2698;SDS011;1359;51.798;12.174;2023-03-19T00:11:26;25.73;;;17.60;;
2698;SDS011;1359;51.798;12.174;2023-03-19T00:13:51;31.00;;;19.53;;
2698;SDS011;1359;51.798;12.174;2023-03-19T00:16:17;25.00;;;18.97;;
2698;SDS011;1359;51.798;12.174;2023-03-19T00:18:42;22.30;;;18.53;;
2698;SDS011;1359;51.798;12.174;2023-03-19T00:21:07;25.33;;;20.60;;
2698;SDS011;1359;51.798;12.174;2023-03-19T00:23:33;27.70;;;20.70;;
2698;SDS011;1359;51.798;12.174;2023-03-19T00:25:59;26.13;;;18.77;;
2698;SDS011;1359;51.798;12.174;2023-03-19T00:28:24;27.47;;;19.20;;
2698;SDS011;1359;51.798;12.174;2023-03-19T00:30:51;25.47;;;19.27;;
2698;SDS011;1359;51.798;12.174;2023-03-19T00:33:16;27.03;;;19.83;;
2698;SDS011;1359;51.798;12.174;2023-03-19T00:35:44;30.83;;;20.40;;
2698;SDS011;1359;51.798;12.174;2023-03-19T00:38:09;22.00;;;18.73;;
2698;SDS011;1359;51.798;12.174;2023-03-19T00:40:34;33.40;;;20.43;;
2698;SDS011;1359;51.798;12.174;2023-03-19T00:43:00;25.67;;;20.00;;
2698;SDS011;1359;51.798;12.174;2023-03-19T00:45:26;28.27;;;17.90;;
2698;SDS011;1359;51.798;12.174;2023-03-19T00:47:52;30.70;;;21.27;;
2698;SDS011;1359;51.798;12.174;2023-03-19T00:50:17;24.50;;;18.47;;
2698;SDS011;1359;51.798;12.174;2023-03-19T00:52:42;33.03;;;17.37;;
2698;SDS011;1359;51.798;12.174;2023-03-19T00:55:08;23.73;;;17.93;;
2698;SDS011;1359;51.798;12.174;2023-03-19T00:57:34;22.20;;;16.60;;
2698;SDS011;1359;51.798;12.174;2023-03-19T01:00:00;27.33;;;18.97;;
2698;SDS011;1359;51.798;12.174;2023-03-19T01:02:25;20.53;;;18.33;;
2698;SDS011;1359;51.798;12.174;2023-03-19T01:04:50;20.03;;;16.07;;
2698;SDS011;1359;51.798;12.174;2023-03-19T01:07:16;26.13;;;18.07;;
2698;SDS011;1359;51.798;12.174;2023-03-19T01:09:41;23.80;;;18.37;;
2698;SDS011;1359;51.798;12.174;2023-03-19T01:12:07;21.50;;;17.13;;
2698;SDS011;1359;51.798;12.174;2023-03-19T01:14:32;34.83;;;18.17;;
2698;SDS011;1359;51.798;12.174;2023-03-19T01:16:58;25.73;;;18.70;;
2698;SDS011;1359;51.798;12.174;2023-03-19T01:19:23;27.67;;;19.30;;
2698;SDS011;1359;51.798;12.174;2023-03-19T01:21:48;26.93;;;18.83;;
2698;SDS011;1359;51.798;12.174;2023-03-19T01:24:18;30.07;;;18.47;;
2698;SDS011;1359;51.798;12.174;2023-03-19T01:26:46;20.20;;;17.63;;
2698;SDS011;1359;51.798;12.174;2023-03-19T01:29:22;23.53;;;18.30;;
2698;SDS011;1359;51.798;12.174;2023-03-19T01:31:48;26.20;;;18.83;;
2698;SDS011;1359;51.798;12.174;2023-03-19T01:34:32;20.73;;;17.53;;
2698;SDS011;1359;51.798;12.174;2023-03-19T01:37:06;25.30;;;18.17;;
2698;SDS011;1359;51.798;12.174;2023-03-19T01:39:32;23.80;;;17.60;;
2698;SDS011;1359;51.798;12.174;2023-03-19T01:42:02;23.30;;;18.83;;
2698;SDS011;1359;51.798;12.174;2023-03-19T01:44:51;23.77;;;18.67;;
2698;SDS011;1359;51.798;12.174;2023-03-19T01:53:14;21.37;;;17.67;;
2698;SDS011;1359;51.798;12.174;2023-03-19T01:55:55;24.10;;;17.83;;
2698;SDS011;1359;51.798;12.174;2023-03-19T01:58:35;24.30;;;18.60;;
2698;SDS011;1359;51.798;12.174;2023-03-19T02:01:09;20.23;;;16.63;;
2698;SDS011;1359;51.798;12.174;2023-03-19T02:03:40;24.43;;;17.43;;
2698;SDS011;1359;51.798;12.174;2023-03-19T02:06:14;28.50;;;17.30;;
2698;SDS011;1359;51.798;12.174;2023-03-19T02:08:41;21.17;;;16.37;;
2698;SDS011;1359;51.798;12.174;2023-03-19T02:11:07;31.40;;;17.93;;
2698;SDS011;1359;51.798;12.174;2023-03-19T02:13:33;21.93;;;17.13;;
2698;SDS011;1359;51.798;12.174;2023-03-19T02:15:58;20.57;;;16.10;;
2698;SDS011;1359;51.798;12.174;2023-03-19T02:18:24;19.37;;;16.50;;
2698;SDS011;1359;51.798;12.174;2023-03-19T02:21:04;22.80;;;18.07;;
2698;SDS011;1359;51.798;12.174;2023-03-19T02:23:46;23.30;;;17.07;;
2698;SDS011;1359;51.798;12.174;2023-03-19T02:26:18;21.20;;;17.70;;
2698;SDS011;1359;51.798;12.174;2023-03-19T02:28:47;20.73;;;17.77;;
2698;SDS011;1359;51.798;12.174;2023-03-19T02:31:16;22.37;;;17.53;;
2698;SDS011;1359;51.798;12.174;2023-03-19T02:33:42;20.13;;;16.90;;
2698;SDS011;1359;51.798;12.174;2023-03-19T02:36:09;23.20;;;17.17;;
2698;SDS011;1359;51.798;12.174;2023-03-19T02:38:35;20.47;;;18.37;;
2698;SDS011;1359;51.798;12.174;2023-03-19T02:41:03;26.63;;;18.23;;
2698;SDS011;1359;51.798;12.174;2023-03-19T02:43:33;26.07;;;18.97;;
2698;SDS011;1359;51.798;12.174;2023-03-19T02:45:59;19.90;;;16.90;;
2698;SDS011;1359;51.798;12.174;2023-03-19T02:48:25;26.63;;;19.63;;
2698;SDS011;1359;51.798;12.174;2023-03-19T02:50:51;23.67;;;17.07;;
2698;SDS011;1359;51.798;12.174;2023-03-19T02:53:16;20.73;;;16.63;;
2698;SDS011;1359;51.798;12.174;2023-03-19T02:55:42;22.27;;;18.43;;
2698;SDS011;1359;51.798;12.174;2023-03-19T02:58:07;18.73;;;16.30;;
2698;SDS011;1359;51.798;12.174;2023-03-19T03:00:33;24.73;;;20.97;;
2698;SDS011;1359;51.798;12.174;2023-03-19T03:02:58;24.07;;;18.73;;
2698;SDS011;1359;51.798;12.174;2023-03-19T03:05:24;26.90;;;21.03;;
2698;SDS011;1359;51.798;12.174;2023-03-19T03:07:50;28.97;;;23.10;;
2698;SDS011;1359;51.798;12.174;2023-03-19T03:10:16;25.30;;;20.07;;
2698;SDS011;1359;51.798;12.174;2023-03-19T03:12:41;22.67;;;18.47;;
2698;SDS011;1359;51.798;12.174;2023-03-19T03:15:07;29.17;;;19.90;;
2698;SDS011;1359;51.798;12.174;2023-03-19T03:17:36;23.13;;;19.27;;
2698;SDS011;1359;51.798;12.174;2023-03-19T03:20:03;31.93;;;23.10;;
2698;SDS011;1359;51.798;12.174;2023-03-19T03:22:29;29.67;;;21.13;;
2698;SDS011;1359;51.798;12.174;2023-03-19T03:24:54;27.10;;;21.07;;
2698;SDS011;1359;51.798;12.174;2023-03-19T03:27:19;32.10;;;24.23;;
2698;SDS011;1359;51.798;12.174;2023-03-19T03:29:45;26.30;;;21.80;;
2698;SDS011;1359;51.798;12.174;2023-03-19T03:32:10;33.13;;;26.03;;
2698;SDS011;1359;51.798;12.174;2023-03-19T03:34:35;32.87;;;23.57;;
2698;SDS011;1359;51.798;12.174;2023-03-19T03:37:01;35.27;;;25.20;;
2698;SDS011;1359;51.798;12.174;2023-03-19T03:39:26;29.57;;;25.03;;
2698;SDS011;1359;51.798;12.174;2023-03-19T03:41:52;32.53;;;26.37;;
2698;SDS011;1359;51.798;12.174;2023-03-19T03:44:18;31.80;;;24.77;;
2698;SDS011;1359;51.798;12.174;2023-03-19T03:46:43;31.80;;;23.70;;
2698;SDS011;1359;51.798;12.174;2023-03-19T03:49:09;31.80;;;24.40;;
2698;SDS011;1359;51.798;12.174;2023-03-19T03:51:34;31.20;;;24.40;;
2698;SDS011;1359;51.798;12.174;2023-03-19T03:54:00;32.07;;;24.63;;
2698;SDS011;1359;51.798;12.174;2023-03-19T03:56:26;28.90;;;23.43;;
2698;SDS011;1359;51.798;12.174;2023-03-19T03:58:51;28.27;;;22.23;;
2698;SDS011;1359;51.798;12.174;2023-03-19T04:01:17;41.87;;;27.70;;
2698;SDS011;1359;51.798;12.174;2023-03-19T04:03:45;30.37;;;24.20;;
2698;SDS011;1359;51.798;12.174;2023-03-19T04:06:12;33.73;;;23.20;;
2698;SDS011;1359;51.798;12.174;2023-03-19T04:08:38;36.43;;;23.17;;
2698;SDS011;1359;51.798;12.174;2023-03-19T04:11:07;35.20;;;24.20;;
2698;SDS011;1359;51.798;12.174;2023-03-19T04:13:33;31.60;;;24.00;;
2698;SDS011;1359;51.798;12.174;2023-03-19T04:16:07;36.80;;;27.57;;
2698;SDS011;1359;51.798;12.174;2023-03-19T04:18:34;36.23;;;25.87;;
2698;SDS011;1359;51.798;12.174;2023-03-19T04:21:00;37.53;;;26.57;;
2698;SDS011;1359;51.798;12.174;2023-03-19T04:23:25;34.70;;;27.33;;
2698;SDS011;1359;51.798;12.174;2023-03-19T04:25:51;38.07;;;28.50;;
2698;SDS011;1359;51.798;12.174;2023-03-19T04:28:17;38.20;;;27.07;;
2698;SDS011;1359;51.798;12.174;2023-03-19T04:30:42;38.30;;;26.67;;
2698;SDS011;1359;51.798;12.174;2023-03-19T04:33:09;35.40;;;26.10;;
2698;SDS011;1359;51.798;12.174;2023-03-19T04:35:35;33.70;;;25.80;;
2698;SDS011;1359;51.798;12.174;2023-03-19T04:38:01;29.43;;;23.23;;
2698;SDS011;1359;51.798;12.174;2023-03-19T04:40:26;32.43;;;23.53;;
2698;SDS011;1359;51.798;12.174;2023-03-19T04:42:52;25.07;;;21.87;;
2698;SDS011;1359;51.798;12.174;2023-03-19T04:45:29;26.73;;;22.40;;
2698;SDS011;1359;51.798;12.174;2023-03-19T04:47:55;26.93;;;23.00;;
2698;SDS011;1359;51.798;12.174;2023-03-19T04:50:20;32.43;;;23.30;;
2698;SDS011;1359;51.798;12.174;2023-03-19T04:52:46;31.63;;;24.60;;
2698;SDS011;1359;51.798;12.174;2023-03-19T04:55:13;31.17;;;23.57;;
2698;SDS011;1359;51.798;12.174;2023-03-19T04:57:52;27.93;;;22.33;;
2698;SDS011;1359;51.798;12.174;2023-03-19T05:00:20;32.83;;;24.83;;
2698;SDS011;1359;51.798;12.174;2023-03-19T05:02:47;31.93;;;22.87;;
2698;SDS011;1359;51.798;12.174;2023-03-19T05:05:13;30.90;;;23.73;;
2698;SDS011;1359;51.798;12.174;2023-03-19T05:07:39;28.03;;;24.57;;
2698;SDS011;1359;51.798;12.174;2023-03-19T05:10:05;32.83;;;23.77;;
2698;SDS011;1359;51.798;12.174;2023-03-19T05:12:30;29.20;;;21.93;;
2698;SDS011;1359;51.798;12.174;2023-03-19T05:14:57;33.10;;;25.90;;
2698;SDS011;1359;51.798;12.174;2023-03-19T05:17:32;33.07;;;26.27;;
2698;SDS011;1359;51.798;12.174;2023-03-19T05:20:10;34.70;;;25.50;;
2698;SDS011;1359;51.798;12.174;2023-03-19T05:22:40;38.03;;;26.17;;
2698;SDS011;1359;51.798;12.174;2023-03-19T05:25:06;32.77;;;23.30;;
2698;SDS011;1359;51.798;12.174;2023-03-19T05:27:32;28.07;;;23.70;;
2698;SDS011;1359;51.798;12.174;2023-03-19T05:30:07;35.60;;;25.20;;
2698;SDS011;1359;51.798;12.174;2023-03-19T05:32:51;30.67;;;23.33;;
2698;SDS011;1359;51.798;12.174;2023-03-19T05:35:28;36.00;;;23.67;;
2698;SDS011;1359;51.798;12.174;2023-03-19T05:37:54;32.97;;;23.30;;
2698;SDS011;1359;51.798;12.174;2023-03-19T05:40:20;32.47;;;25.80;;
2698;SDS011;1359;51.798;12.174;2023-03-19T05:42:46;30.30;;;26.03;;
2698;SDS011;1359;51.798;12.174;2023-03-19T05:45:15;32.37;;;24.07;;
2698;SDS011;1359;51.798;12.174;2023-03-19T05:47:48;33.83;;;25.40;;
2698;SDS011;1359;51.798;12.174;2023-03-19T05:50:16;33.83;;;24.20;;
2698;SDS011;1359;51.798;12.174;2023-03-19T05:52:53;32.60;;;25.33;;
2698;SDS011;1359;51.798;12.174;2023-03-19T05:55:19;37.30;;;25.33;;
2698;SDS011;1359;51.798;12.174;2023-03-19T05:57:49;33.80;;;24.73;;
2698;SDS011;1359;51.798;12.174;2023-03-19T06:00:17;35.10;;;22.97;;
2698;SDS011;1359;51.798;12.174;2023-03-19T06:02:45;29.10;;;23.90;;
2698;SDS011;1359;51.798;12.174;2023-03-19T06:05:31;26.37;;;21.73;;
2698;SDS011;1359;51.798;12.174;2023-03-19T06:08:03;33.43;;;24.27;;
2698;SDS011;1359;51.798;12.174;2023-03-19T06:10:51;34.93;;;24.03;;
2698;SDS011;1359;51.798;12.174;2023-03-19T06:13:16;34.70;;;23.20;;
2698;SDS011;1359;51.798;12.174;2023-03-19T06:15:50;37.00;;;22.40;;
2698;SDS011;1359;51.798;12.174;2023-03-19T06:18:36;44.30;;;32.87;;
2698;SDS011;1359;51.798;12.174;2023-03-19T06:21:07;33.10;;;24.50;;
2698;SDS011;1359;51.798;12.174;2023-03-19T06:23:32;32.23;;;23.73;;
2698;SDS011;1359;51.798;12.174;2023-03-19T06:25:59;35.47;;;26.63;;
2698;SDS011;1359;51.798;12.174;2023-03-19T06:28:28;34.43;;;25.10;;
2698;SDS011;1359;51.798;12.174;2023-03-19T06:30:54;41.40;;;26.73;;
2698;SDS011;1359;51.798;12.174;2023-03-19T06:33:38;32.93;;;25.40;;
2698;SDS011;1359;51.798;12.174;2023-03-19T06:36:04;33.30;;;22.00;;
2698;SDS011;1359;51.798;12.174;2023-03-19T06:38:31;30.07;;;22.73;;
2698;SDS011;1359;51.798;12.174;2023-03-19T06:40:57;30.07;;;23.53;;
2698;SDS011;1359;51.798;12.174;2023-03-19T06:43:22;28.50;;;21.73;;
2698;SDS011;1359;51.798;12.174;2023-03-19T06:45:47;27.37;;;22.13;;
2698;SDS011;1359;51.798;12.174;2023-03-19T06:48:13;35.17;;;23.30;;
2698;SDS011;1359;51.798;12.174;2023-03-19T06:50:38;30.13;;;22.50;;
2698;SDS011;1359;51.798;12.174;2023-03-19T06:53:03;25.53;;;21.23;;
2698;SDS011;1359;51.798;12.174;2023-03-19T06:55:29;32.93;;;22.40;;
2698;SDS011;1359;51.798;12.174;2023-03-19T06:57:55;23.77;;;19.20;;
2698;SDS011;1359;51.798;12.174;2023-03-19T07:00:20;32.70;;;21.97;;
2698;SDS011;1359;51.798;12.174;2023-03-19T07:02:46;35.93;;;23.50;;
2698;SDS011;1359;51.798;12.174;2023-03-19T07:05:11;29.67;;;21.47;;
2698;SDS011;1359;51.798;12.174;2023-03-19T07:07:37;27.80;;;20.80;;
2698;SDS011;1359;51.798;12.174;2023-03-19T07:10:02;29.67;;;22.23;;
2698;SDS011;1359;51.798;12.174;2023-03-19T07:12:28;31.77;;;20.90;;
2698;SDS011;1359;51.798;12.174;2023-03-19T07:14:53;31.67;;;21.90;;
2698;SDS011;1359;51.798;12.174;2023-03-19T07:17:20;32.67;;;21.70;;
2698;SDS011;1359;51.798;12.174;2023-03-19T07:19:46;26.57;;;20.60;;
2698;SDS011;1359;51.798;12.174;2023-03-19T07:22:11;30.47;;;22.20;;
2698;SDS011;1359;51.798;12.174;2023-03-19T07:24:36;27.50;;;18.80;;
2698;SDS011;1359;51.798;12.174;2023-03-19T07:27:02;27.00;;;20.03;;
2698;SDS011;1359;51.798;12.174;2023-03-19T07:29:27;27.73;;;20.80;;
2698;SDS011;1359;51.798;12.174;2023-03-19T07:31:53;36.23;;;21.03;;
2698;SDS011;1359;51.798;12.174;2023-03-19T07:34:18;28.80;;;20.07;;
2698;SDS011;1359;51.798;12.174;2023-03-19T07:36:43;26.10;;;19.97;;
2698;SDS011;1359;51.798;12.174;2023-03-19T07:39:09;29.10;;;20.93;;
2698;SDS011;1359;51.798;12.174;2023-03-19T07:41:34;30.90;;;22.03;;
2698;SDS011;1359;51.798;12.174;2023-03-19T07:44:00;27.90;;;20.63;;
2698;SDS011;1359;51.798;12.174;2023-03-19T07:46:25;32.20;;;22.07;;
2698;SDS011;1359;51.798;12.174;2023-03-19T07:48:50;31.87;;;21.63;;
2698;SDS011;1359;51.798;12.174;2023-03-19T07:51:16;31.23;;;21.80;;
2698;SDS011;1359;51.798;12.174;2023-03-19T07:53:42;32.33;;;21.40;;
2698;SDS011;1359;51.798;12.174;2023-03-19T07:56:07;25.13;;;19.23;;
2698;SDS011;1359;51.798;12.174;2023-03-19T07:58:32;27.07;;;21.07;;
2698;SDS011;1359;51.798;12.174;2023-03-19T08:00:58;30.30;;;20.23;;
2698;SDS011;1359;51.798;12.174;2023-03-19T08:03:23;25.50;;;18.80;;
2698;SDS011;1359;51.798;12.174;2023-03-19T08:05:48;26.93;;;19.47;;
2698;SDS011;1359;51.798;12.174;2023-03-19T08:08:14;27.77;;;19.43;;
2698;SDS011;1359;51.798;12.174;2023-03-19T08:10:39;27.20;;;18.90;;
2698;SDS011;1359;51.798;12.174;2023-03-19T08:13:05;32.43;;;22.63;;
2698;SDS011;1359;51.798;12.174;2023-03-19T08:15:30;28.60;;;21.30;;
2698;SDS011;1359;51.798;12.174;2023-03-19T08:17:57;30.00;;;23.77;;
2698;SDS011;1359;51.798;12.174;2023-03-19T08:20:22;23.93;;;20.27;;
2698;SDS011;1359;51.798;12.174;2023-03-19T08:22:48;27.77;;;20.27;;
2698;SDS011;1359;51.798;12.174;2023-03-19T08:25:13;23.40;;;18.73;;
2698;SDS011;1359;51.798;12.174;2023-03-19T08:27:39;21.97;;;17.10;;
2698;SDS011;1359;51.798;12.174;2023-03-19T08:30:06;30.83;;;20.70;;
2698;SDS011;1359;51.798;12.174;2023-03-19T08:32:32;25.47;;;18.20;;
2698;SDS011;1359;51.798;12.174;2023-03-19T08:34:57;22.33;;;17.30;;
2698;SDS011;1359;51.798;12.174;2023-03-19T08:37:23;22.43;;;18.00;;
2698;SDS011;1359;51.798;12.174;2023-03-19T08:39:49;22.67;;;17.80;;
2698;SDS011;1359;51.798;12.174;2023-03-19T08:42:15;20.50;;;17.13;;
2698;SDS011;1359;51.798;12.174;2023-03-19T08:44:40;27.37;;;18.40;;
2698;SDS011;1359;51.798;12.174;2023-03-19T08:47:05;22.00;;;16.57;;
2698;SDS011;1359;51.798;12.174;2023-03-19T08:49:30;23.77;;;17.67;;
2698;SDS011;1359;51.798;12.174;2023-03-19T08:51:56;20.37;;;16.57;;
2698;SDS011;1359;51.798;12.174;2023-03-19T08:54:21;25.33;;;17.50;;
2698;SDS011;1359;51.798;12.174;2023-03-19T08:56:46;24.93;;;17.30;;
2698;SDS011;1359;51.798;12.174;2023-03-19T08:59:12;20.73;;;15.83;;
2698;SDS011;1359;51.798;12.174;2023-03-19T09:01:37;21.37;;;15.73;;
2698;SDS011;1359;51.798;12.174;2023-03-19T09:04:02;18.70;;;16.00;;
2698;SDS011;1359;51.798;12.174;2023-03-19T09:06:28;22.53;;;17.13;;
2698;SDS011;1359;51.798;12.174;2023-03-19T09:08:54;18.13;;;16.23;;
2698;SDS011;1359;51.798;12.174;2023-03-19T09:11:19;18.60;;;14.30;;
2698;SDS011;1359;51.798;12.174;2023-03-19T09:13:44;23.83;;;17.17;;
2698;SDS011;1359;51.798;12.174;2023-03-19T09:16:10;18.93;;;15.00;;
2698;SDS011;1359;51.798;12.174;2023-03-19T09:18:35;19.20;;;15.90;;
2698;SDS011;1359;51.798;12.174;2023-03-19T09:21:01;21.83;;;16.03;;
2698;SDS011;1359;51.798;12.174;2023-03-19T09:23:26;22.60;;;13.67;;
2698;SDS011;1359;51.798;12.174;2023-03-19T09:25:52;22.30;;;15.53;;
2698;SDS011;1359;51.798;12.174;2023-03-19T09:28:17;18.27;;;14.33;;
2698;SDS011;1359;51.798;12.174;2023-03-19T09:30:46;19.00;;;14.47;;
2698;SDS011;1359;51.798;12.174;2023-03-19T09:33:12;22.10;;;14.30;;
2698;SDS011;1359;51.798;12.174;2023-03-19T09:35:38;19.23;;;15.67;;
2698;SDS011;1359;51.798;12.174;2023-03-19T09:38:04;19.70;;;13.90;;
2698;SDS011;1359;51.798;12.174;2023-03-19T09:40:43;23.87;;;15.50;;
2698;SDS011;1359;51.798;12.174;2023-03-19T09:43:23;21.33;;;14.17;;
2698;SDS011;1359;51.798;12.174;2023-03-19T09:45:53;19.30;;;13.30;;
2698;SDS011;1359;51.798;12.174;2023-03-19T09:48:25;17.40;;;11.90;;
2698;SDS011;1359;51.798;12.174;2023-03-19T09:50:56;16.13;;;11.53;;
2698;SDS011;1359;51.798;12.174;2023-03-19T09:53:30;16.83;;;14.43;;
2698;SDS011;1359;51.798;12.174;2023-03-19T09:56:01;16.40;;;13.87;;
2698;SDS011;1359;51.798;12.174;2023-03-19T09:58:32;17.00;;;15.10;;
2698;SDS011;1359;51.798;12.174;2023-03-19T10:00:58;25.43;;;13.90;;
2698;SDS011;1359;51.798;12.174;2023-03-19T10:05:51;17.90;;;13.20;;
2698;SDS011;1359;51.798;12.174;2023-03-19T10:08:25;20.87;;;13.00;;
2698;SDS011;1359;51.798;12.174;2023-03-19T10:11:04;15.37;;;12.93;;
2698;SDS011;1359;51.798;12.174;2023-03-19T10:16:16;26.53;;;16.83;;
2698;SDS011;1359;51.798;12.174;2023-03-19T10:18:43;21.33;;;17.40;;
2698;SDS011;1359;51.798;12.174;2023-03-19T10:23:46;21.77;;;17.93;;
2698;SDS011;1359;51.798;12.174;2023-03-19T10:26:15;17.50;;;15.07;;
2698;SDS011;1359;51.798;12.174;2023-03-19T10:28:42;23.37;;;17.87;;
2698;SDS011;1359;51.798;12.174;2023-03-19T10:34:04;17.30;;;14.80;;
2698;SDS011;1359;51.798;12.174;2023-03-19T10:36:33;19.13;;;15.87;;
2698;SDS011;1359;51.798;12.174;2023-03-19T10:38:59;21.80;;;16.63;;
2698;SDS011;1359;51.798;12.174;2023-03-19T10:41:37;22.17;;;17.03;;
2698;SDS011;1359;51.798;12.174;2023-03-19T10:44:06;26.33;;;18.63;;
2698;SDS011;1359;51.798;12.174;2023-03-19T10:46:39;19.67;;;16.57;;
2698;SDS011;1359;51.798;12.174;2023-03-19T10:49:09;19.70;;;17.47;;
2698;SDS011;1359;51.798;12.174;2023-03-19T10:51:35;21.43;;;16.33;;
2698;SDS011;1359;51.798;12.174;2023-03-19T10:54:02;21.50;;;16.67;;
2698;SDS011;1359;51.798;12.174;2023-03-19T10:56:40;23.30;;;16.57;;
2698;SDS011;1359;51.798;12.174;2023-03-19T10:59:19;18.47;;;16.57;;
2698;SDS011;1359;51.798;12.174;2023-03-19T11:01:45;18.37;;;16.57;;
2698;SDS011;1359;51.798;12.174;2023-03-19T11:04:20;19.20;;;16.20;;
2698;SDS011;1359;51.798;12.174;2023-03-19T11:06:50;18.93;;;14.30;;
2698;SDS011;1359;51.798;12.174;2023-03-19T11:09:34;24.73;;;16.30;;
2698;SDS011;1359;51.798;12.174;2023-03-19T11:15:02;19.43;;;15.80;;
2698;SDS011;1359;51.798;12.174;2023-03-19T11:17:38;16.30;;;14.20;;
2698;SDS011;1359;51.798;12.174;2023-03-19T11:20:18;18.90;;;15.90;;
2698;SDS011;1359;51.798;12.174;2023-03-19T11:22:43;22.67;;;13.87;;
2698;SDS011;1359;51.798;12.174;2023-03-19T11:25:16;21.70;;;16.80;;
2698;SDS011;1359;51.798;12.174;2023-03-19T11:28:28;23.90;;;17.10;;
2698;SDS011;1359;51.798;12.174;2023-03-19T11:30:39;18.50;;;16.10;;
2698;SDS011;1359;51.798;12.174;2023-03-19T11:33:21;23.63;;;16.50;;
2698;SDS011;1359;51.798;12.174;2023-03-19T11:38:23;18.13;;;15.57;;
2698;SDS011;1359;51.798;12.174;2023-03-19T11:41:11;20.57;;;15.47;;
2698;SDS011;1359;51.798;12.174;2023-03-19T11:51:25;21.17;;;18.10;;
2698;SDS011;1359;51.798;12.174;2023-03-19T11:53:58;20.40;;;16.90;;
2698;SDS011;1359;51.798;12.174;2023-03-19T11:58:54;22.67;;;16.60;;
2698;SDS011;1359;51.798;12.174;2023-03-19T12:03:56;16.43;;;14.47;;
2698;SDS011;1359;51.798;12.174;2023-03-19T12:06:33;14.77;;;13.20;;
2698;SDS011;1359;51.798;12.174;2023-03-19T12:09:02;17.20;;;14.20;;
2698;SDS011;1359;51.798;12.174;2023-03-19T12:14:15;15.30;;;13.70;;
2698;SDS011;1359;51.798;12.174;2023-03-19T12:16:47;16.47;;;13.10;;
2698;SDS011;1359;51.798;12.174;2023-03-19T12:27:17;20.17;;;15.90;;
2698;SDS011;1359;51.798;12.174;2023-03-19T12:34:48;20.13;;;18.03;;
2698;SDS011;1359;51.798;12.174;2023-03-19T12:42:37;19.70;;;16.23;;
2698;SDS011;1359;51.798;12.174;2023-03-19T12:45:03;19.77;;;14.63;;
2698;SDS011;1359;51.798;12.174;2023-03-19T12:47:31;18.50;;;15.80;;
2698;SDS011;1359;51.798;12.174;2023-03-19T12:50:03;21.03;;;14.87;;
2698;SDS011;1359;51.798;12.174;2023-03-19T12:52:34;18.23;;;14.67;;
2698;SDS011;1359;51.798;12.174;2023-03-19T12:55:20;19.90;;;15.30;;
2698;SDS011;1359;51.798;12.174;2023-03-19T13:00:21;16.43;;;14.37;;
2698;SDS011;1359;51.798;12.174;2023-03-19T13:02:52;26.57;;;17.97;;
2698;SDS011;1359;51.798;12.174;2023-03-19T13:06:05;17.93;;;14.50;;
2698;SDS011;1359;51.798;12.174;2023-03-19T13:08:10;16.30;;;13.87;;
2698;SDS011;1359;51.798;12.174;2023-03-19T13:10:38;18.50;;;16.70;;
2698;SDS011;1359;51.798;12.174;2023-03-19T13:13:18;18.63;;;14.43;;
2698;SDS011;1359;51.798;12.174;2023-03-19T13:15:48;25.43;;;16.13;;
2698;SDS011;1359;51.798;12.174;2023-03-19T13:23:27;14.33;;;10.10;;
2698;SDS011;1359;51.798;12.174;2023-03-19T13:25:54;9.60;;;8.60;;
2698;SDS011;1359;51.798;12.174;2023-03-19T13:28:22;11.20;;;7.90;;
2698;SDS011;1359;51.798;12.174;2023-03-19T13:31:06;10.60;;;7.50;;
2698;SDS011;1359;51.798;12.174;2023-03-19T13:33:32;7.87;;;6.73;;
2698;SDS011;1359;51.798;12.174;2023-03-19T13:36:03;10.50;;;6.57;;
2698;SDS011;1359;51.798;12.174;2023-03-19T13:38:39;10.53;;;7.50;;
2698;SDS011;1359;51.798;12.174;2023-03-19T13:41:22;7.30;;;6.33;;
2698;SDS011;1359;51.798;12.174;2023-03-19T13:43:52;5.83;;;5.33;;
2698;SDS011;1359;51.798;12.174;2023-03-19T13:53:38;7.00;;;6.30;;
2698;SDS011;1359;51.798;12.174;2023-03-19T13:56:11;9.50;;;6.70;;
2698;SDS011;1359;51.798;12.174;2023-03-19T13:58:44;8.93;;;6.70;;
2698;SDS011;1359;51.798;12.174;2023-03-19T14:03:57;11.40;;;7.57;;
2698;SDS011;1359;51.798;12.174;2023-03-19T14:06:28;10.40;;;7.70;;
2698;SDS011;1359;51.798;12.174;2023-03-19T14:08:54;9.73;;;8.47;;
2698;SDS011;1359;51.798;12.174;2023-03-19T14:11:21;10.13;;;7.77;;
2698;SDS011;1359;51.798;12.174;2023-03-19T14:13:47;8.37;;;7.57;;
2698;SDS011;1359;51.798;12.174;2023-03-19T14:18:41;10.77;;;9.73;;
2698;SDS011;1359;51.798;12.174;2023-03-19T14:21:15;10.40;;;8.87;;
2698;SDS011;1359;51.798;12.174;2023-03-19T14:23:41;12.80;;;8.00;;
2698;SDS011;1359;51.798;12.174;2023-03-19T14:26:22;9.23;;;8.23;;
2698;SDS011;1359;51.798;12.174;2023-03-19T14:29:01;10.57;;;8.67;;
2698;SDS011;1359;51.798;12.174;2023-03-19T14:36:22;9.87;;;8.00;;
2698;SDS011;1359;51.798;12.174;2023-03-19T14:38:56;7.93;;;7.10;;
2698;SDS011;1359;51.798;12.174;2023-03-19T14:41:22;14.63;;;9.00;;
2698;SDS011;1359;51.798;12.174;2023-03-19T14:43:53;8.67;;;7.87;;
2698;SDS011;1359;51.798;12.174;2023-03-19T14:51:31;10.70;;;7.77;;
2698;SDS011;1359;51.798;12.174;2023-03-19T14:56:33;10.50;;;7.87;;
2698;SDS011;1359;51.798;12.174;2023-03-19T14:58:59;11.43;;;7.43;;
2698;SDS011;1359;51.798;12.174;2023-03-19T15:01:30;8.30;;;5.93;;
2698;SDS011;1359;51.798;12.174;2023-03-19T15:06:21;12.13;;;6.77;;
2698;SDS011;1359;51.798;12.174;2023-03-19T15:08:48;8.40;;;7.60;;
2698;SDS011;1359;51.798;12.174;2023-03-19T15:13:43;12.60;;;7.63;;
2698;SDS011;1359;51.798;12.174;2023-03-19T15:16:14;6.33;;;5.73;;
2698;SDS011;1359;51.798;12.174;2023-03-19T15:18:42;9.63;;;4.97;;
2698;SDS011;1359;51.798;12.174;2023-03-19T15:21:08;8.47;;;5.13;;
2698;SDS011;1359;51.798;12.174;2023-03-19T15:23:33;6.20;;;5.20;;
2698;SDS011;1359;51.798;12.174;2023-03-19T15:26:01;5.17;;;4.70;;
2698;SDS011;1359;51.798;12.174;2023-03-19T15:28:28;5.90;;;4.33;;
2698;SDS011;1359;51.798;12.174;2023-03-19T15:30:55;5.83;;;4.80;;
2698;SDS011;1359;51.798;12.174;2023-03-19T15:33:24;5.43;;;4.80;;
2698;SDS011;1359;51.798;12.174;2023-03-19T15:36:09;4.80;;;4.30;;
2698;SDS011;1359;51.798;12.174;2023-03-19T15:38:38;5.37;;;4.10;;
2698;SDS011;1359;51.798;12.174;2023-03-19T15:41:04;5.23;;;4.30;;
2698;SDS011;1359;51.798;12.174;2023-03-19T15:43:32;4.10;;;3.80;;
2698;SDS011;1359;51.798;12.174;2023-03-19T15:45:57;5.50;;;5.10;;
2698;SDS011;1359;51.798;12.174;2023-03-19T15:48:24;5.97;;;5.47;;
2698;SDS011;1359;51.798;12.174;2023-03-19T15:50:54;7.87;;;6.03;;
2698;SDS011;1359;51.798;12.174;2023-03-19T15:53:21;11.00;;;6.60;;
2698;SDS011;1359;51.798;12.174;2023-03-19T15:55:49;6.23;;;4.00;;
2698;SDS011;1359;51.798;12.174;2023-03-19T15:58:17;5.93;;;4.00;;
2698;SDS011;1359;51.798;12.174;2023-03-19T16:00:44;6.30;;;4.00;;
2698;SDS011;1359;51.798;12.174;2023-03-19T16:03:11;3.30;;;3.00;;
2698;SDS011;1359;51.798;12.174;2023-03-19T16:05:40;8.00;;;4.50;;
2698;SDS011;1359;51.798;12.174;2023-03-19T16:08:22;4.30;;;3.90;;
2698;SDS011;1359;51.798;12.174;2023-03-19T16:10:48;4.07;;;3.77;;
2698;SDS011;1359;51.798;12.174;2023-03-19T16:13:30;5.27;;;3.90;;
2698;SDS011;1359;51.798;12.174;2023-03-19T16:15:59;4.93;;;3.93;;
2698;SDS011;1359;51.798;12.174;2023-03-19T16:18:26;4.50;;;3.60;;
2698;SDS011;1359;51.798;12.174;2023-03-19T16:20:58;4.97;;;4.57;;